Aérodrome :
LOGIN :

S'inscrire | Disclaimer

   EN    FR    IT 

 










Légende :    VFR   VFR Marginal   IFR   IFR Intensif   IFR Très Intensif
Visi : 
Plafond : 
>= 8 km
>= 3000ft
5 à 8 km
1000 à 3000 ft
1500m à 5 km
500 à 1000 ft
800 à 1500m
200 à 500 ft
< 800m
< 200 ft
Symboles :   Orages  Brouillard  Fortes neiges  Fortes précipitations  Vent > 20 kt
SIGMETs :   Divers  Orages  Givrage  Turbulence  Onde Orograph.  Cendres Volcan.






- Altitude de l'aérodrome : 100 ft


EBDT - Schaffen

DERNIER METAR :
  • 150655Z AUTO 24013KT 9999 FEW026/// BKN220/// 08/05 Q0996 BLU

METARs EXPIRÉS :
  • 150625Z AUTO 23010KT 9999 FEW075/// BKN210/// 08/05 Q0995 BLU
  • 150555Z AUTO 24012KT 9999 SCT065/// BKN080/// BKN095/// 08/05 Q0994 BLU
  • 150525Z AUTO 26018KT 9999 -RA OVC037/// 08/05 Q0994 BLU
  • 150516Z AUTO 26018G29KT 9999 -RA OVC000/// 09/06 Q0994 RED
  • 150504Z AUTO 26020G32KT 4700 RA FEW018/// SCT024/// BKN030/// 09/08 Q0994 GRN

Prévision TAF périmée.



MET'MAP, la Météo Aéronautique d'un coup d'oeil ! - Copyright ORBIFLY Décembre 2007 - Disclaimer

ORBIFLY MET'MAP TEAM :

Programmation & Développement : Alexandra Zaïnal
Sur une idée originale de : Baudouin d'Aumeries
Assistance à la programmation : Marc-Olivier Méhu
Soutien technique & logistique : Manuel Goepfert

Contact : metmap@orbifly.com




SOURCES & CREDITS :

   NOAA